createdAt,value
2017-08-17T00:01:46.832Z,10.57
2017-08-17T00:04:13.569Z,12.65
2017-08-17T00:06:40.266Z,11.77
2017-08-17T00:09:06.949Z,12.18
2017-08-17T00:11:33.693Z,12.40
2017-08-17T00:14:00.396Z,12.50
2017-08-17T00:16:27.093Z,12.50
2017-08-17T00:18:53.806Z,12.13
2017-08-17T00:21:20.490Z,11.65
2017-08-17T00:23:47.196Z,13.00
2017-08-17T00:26:13.905Z,12.40
2017-08-17T00:28:40.607Z,12.43
2017-08-17T00:31:07.317Z,12.80
2017-08-17T00:33:34.021Z,12.65
2017-08-17T00:36:00.732Z,12.45
2017-08-17T00:38:27.426Z,13.65
2017-08-17T00:40:54.128Z,11.85
2017-08-17T00:43:20.821Z,12.60
2017-08-17T00:45:47.553Z,12.27
2017-08-17T00:48:14.240Z,12.57
2017-08-17T00:50:40.951Z,14.73
2017-08-17T00:53:07.625Z,13.20
2017-08-17T00:55:34.330Z,12.98
2017-08-17T00:58:01.019Z,12.80
2017-08-17T01:00:27.701Z,11.68
2017-08-17T01:02:54.402Z,13.20
2017-08-17T01:05:21.084Z,12.70
2017-08-17T01:07:48.021Z,12.85
2017-08-17T01:10:14.717Z,13.48
2017-08-17T01:12:41.431Z,14.18
2017-08-17T01:15:08.122Z,13.20
2017-08-17T01:17:34.832Z,13.27
2017-08-17T01:20:01.525Z,12.90
2017-08-17T01:22:28.437Z,13.70
2017-08-17T01:24:55.124Z,15.15
2017-08-17T01:27:22.081Z,14.23
2017-08-17T01:29:48.771Z,14.00
2017-08-17T01:32:15.457Z,13.52
2017-08-17T01:34:42.145Z,14.32
2017-08-17T01:37:08.839Z,13.45
2017-08-17T01:39:35.533Z,13.98
2017-08-17T01:42:02.209Z,14.52
2017-08-17T01:44:29.089Z,14.50
2017-08-17T01:46:55.768Z,14.25
2017-08-17T01:49:22.449Z,15.23
2017-08-17T01:51:49.140Z,15.00
2017-08-17T01:54:15.827Z,15.55
2017-08-17T01:56:42.528Z,15.88
2017-08-17T01:59:09.434Z,17.58
2017-08-17T02:01:36.128Z,16.45
2017-08-17T02:04:02.818Z,17.35
2017-08-17T02:06:29.500Z,17.17
2017-08-17T02:08:56.186Z,17.30
2017-08-17T02:11:22.909Z,16.90
2017-08-17T02:13:49.596Z,17.35
2017-08-17T02:16:16.277Z,18.52
2017-08-17T02:18:42.978Z,18.20
2017-08-17T02:21:09.667Z,16.92
2017-08-17T02:23:36.353Z,17.87
2017-08-17T02:26:03.029Z,17.48
2017-08-17T02:28:29.708Z,17.87
2017-08-17T02:30:56.652Z,17.02
2017-08-17T02:33:23.345Z,18.15
2017-08-17T02:35:50.033Z,18.40
2017-08-17T02:38:16.723Z,18.10
2017-08-17T02:40:43.412Z,18.77
2017-08-17T02:43:10.124Z,17.98
2017-08-17T02:45:36.796Z,19.20
2017-08-17T02:48:03.481Z,16.67
2017-08-17T02:50:30.185Z,19.58
2017-08-17T02:52:56.865Z,18.62
2017-08-17T02:55:23.554Z,17.70
2017-08-17T02:57:50.247Z,17.77
2017-08-17T03:00:16.944Z,19.20
2017-08-17T03:02:43.864Z,18.65
2017-08-17T03:05:10.772Z,18.27
2017-08-17T03:07:37.461Z,18.15
2017-08-17T03:10:04.172Z,17.83
2017-08-17T03:12:30.851Z,19.37
2017-08-17T03:14:57.570Z,17.95
2017-08-17T03:17:24.251Z,17.73
2017-08-17T03:19:50.924Z,17.42
2017-08-17T03:22:17.611Z,18.10
2017-08-17T03:24:44.301Z,17.55
2017-08-17T03:27:10.990Z,18.52
2017-08-17T03:29:37.668Z,18.90
2017-08-17T03:32:04.369Z,17.08
2017-08-17T03:34:31.068Z,17.65
2017-08-17T03:36:57.977Z,17.62
2017-08-17T03:39:24.661Z,16.73
2017-08-17T03:41:51.356Z,18.12
2017-08-17T03:44:18.284Z,18.50
2017-08-17T03:46:44.990Z,17.80
2017-08-17T03:49:12.102Z,17.55
2017-08-17T03:51:38.785Z,17.55
2017-08-17T03:54:05.498Z,17.20
2017-08-17T03:56:32.178Z,17.73
2017-08-17T03:58:59.116Z,17.40
2017-08-17T04:01:25.797Z,18.35
2017-08-17T04:03:52.512Z,17.10
2017-08-17T04:06:19.220Z,18.80
2017-08-17T04:08:45.966Z,17.37
2017-08-17T04:11:12.647Z,16.75
2017-08-17T04:13:39.339Z,17.92
2017-08-17T04:16:06.029Z,16.77
2017-08-17T04:18:32.713Z,18.77
2017-08-17T04:20:59.431Z,17.20
2017-08-17T04:23:26.147Z,16.55
2017-08-17T04:25:53.086Z,17.40
2017-08-17T04:28:20.004Z,19.30
2017-08-17T04:30:46.714Z,19.70
2017-08-17T04:33:13.406Z,18.08
2017-08-17T04:35:40.120Z,16.20
2017-08-17T04:38:06.808Z,17.42
2017-08-17T04:40:33.512Z,16.25
2017-08-17T04:43:00.208Z,18.42
2017-08-17T04:45:26.890Z,17.95
2017-08-17T04:47:53.578Z,16.52
2017-08-17T04:50:20.423Z,15.00
2017-08-17T04:52:47.346Z,16.27
2017-08-17T04:55:14.033Z,16.35
2017-08-17T04:57:52.416Z,17.30
2017-08-17T05:00:19.097Z,16.50
2017-08-17T05:02:45.789Z,16.08
2017-08-17T05:05:12.469Z,18.30
2017-08-17T05:07:39.184Z,15.60
2017-08-17T05:10:05.901Z,17.65
2017-08-17T05:12:32.625Z,16.33
2017-08-17T05:14:59.317Z,16.30
2017-08-17T05:17:26.048Z,16.83
2017-08-17T05:19:52.733Z,17.60
2017-08-17T05:22:19.416Z,16.77
2017-08-17T05:24:46.109Z,19.10
2017-08-17T05:27:12.801Z,17.70
2017-08-17T05:29:39.497Z,17.80
2017-08-17T05:32:06.187Z,18.05
2017-08-17T05:34:32.872Z,17.17
2017-08-17T05:36:59.558Z,17.42
2017-08-17T05:39:26.248Z,16.52
2017-08-17T05:41:52.929Z,16.42
2017-08-17T05:44:19.715Z,16.73
2017-08-17T05:46:46.406Z,17.85
2017-08-17T05:49:13.146Z,18.33
2017-08-17T05:51:39.831Z,18.65
2017-08-17T05:54:06.530Z,16.92
2017-08-17T05:56:33.237Z,18.27
2017-08-17T05:58:59.927Z,18.27
2017-08-17T06:01:26.626Z,16.70
2017-08-17T06:03:53.325Z,17.77
2017-08-17T06:06:20.233Z,18.00
2017-08-17T06:08:46.918Z,18.70
2017-08-17T06:11:13.604Z,17.98
2017-08-17T06:13:40.309Z,17.50
2017-08-17T06:16:06.996Z,18.35
2017-08-17T06:18:33.679Z,18.10
2017-08-17T06:21:00.360Z,19.40
2017-08-17T06:23:27.054Z,17.70
2017-08-17T06:25:53.738Z,19.10
2017-08-17T06:28:20.459Z,19.47
2017-08-17T06:30:47.136Z,19.57
2017-08-17T06:33:13.823Z,16.90
2017-08-17T06:35:40.732Z,18.23
2017-08-17T06:38:07.416Z,16.57
2017-08-17T06:40:34.152Z,18.43
2017-08-17T06:43:00.832Z,17.57
2017-08-17T06:45:27.509Z,16.67
2017-08-17T06:47:54.189Z,16.63
2017-08-17T06:50:21.094Z,14.83
2017-08-17T06:52:47.797Z,15.20
2017-08-17T06:55:14.489Z,13.20
2017-08-17T06:57:41.201Z,13.20
2017-08-17T07:00:07.877Z,13.07
2017-08-17T07:02:34.576Z,13.20
2017-08-17T07:05:01.270Z,14.63
2017-08-17T07:07:27.982Z,13.70
2017-08-17T07:09:54.672Z,14.90
2017-08-17T07:12:21.376Z,14.20
2017-08-17T07:14:48.076Z,13.73
2017-08-17T07:17:14.793Z,13.10
2017-08-17T07:19:41.474Z,13.37
2017-08-17T07:22:08.148Z,13.57
2017-08-17T07:24:34.834Z,14.07
2017-08-17T07:27:01.513Z,12.27
2017-08-17T07:29:28.205Z,12.63
2017-08-17T07:31:55.116Z,13.20
2017-08-17T07:34:21.801Z,13.97
2017-08-17T07:36:48.487Z,12.90
2017-08-17T07:39:15.198Z,14.00
2017-08-17T07:41:41.898Z,12.97
2017-08-17T07:44:08.630Z,13.13
2017-08-17T07:46:35.323Z,13.60
2017-08-17T07:49:02.021Z,12.47
2017-08-17T07:51:28.704Z,12.93
2017-08-17T07:53:55.385Z,11.73
2017-08-17T07:56:22.082Z,14.17
2017-08-17T07:58:48.796Z,12.30
2017-08-17T08:01:15.470Z,13.20
2017-08-17T08:03:42.401Z,12.70
2017-08-17T08:06:09.107Z,11.90
2017-08-17T08:08:35.977Z,13.60
2017-08-17T08:11:02.688Z,13.23
2017-08-17T08:13:29.377Z,13.87
2017-08-17T08:15:56.103Z,13.20
2017-08-17T08:18:22.793Z,12.43
2017-08-17T08:20:49.473Z,13.00
2017-08-17T08:23:16.266Z,12.23
2017-08-17T08:25:42.986Z,13.03
2017-08-17T08:28:10.033Z,11.87
2017-08-17T08:30:36.713Z,12.10
2017-08-17T08:33:03.404Z,14.50
2017-08-17T08:35:30.080Z,12.87
2017-08-17T08:37:56.768Z,13.10
2017-08-17T08:40:23.449Z,14.93
2017-08-17T08:42:50.136Z,13.60
2017-08-17T08:45:16.901Z,12.83
2017-08-17T08:47:43.619Z,13.63
2017-08-17T08:50:10.318Z,14.47
2017-08-17T08:52:37.042Z,12.10
2017-08-17T08:55:03.786Z,12.87
2017-08-17T08:57:30.503Z,13.27
2017-08-17T08:59:57.202Z,12.00
2017-08-17T09:02:23.896Z,11.10
2017-08-17T09:04:50.576Z,10.70
2017-08-17T09:07:17.252Z,9.87
2017-08-17T09:09:43.940Z,11.07
2017-08-17T09:12:10.625Z,11.37
2017-08-17T09:14:37.309Z,10.87
2017-08-17T09:17:04.241Z,9.40
2017-08-17T09:19:30.917Z,9.97
2017-08-17T09:21:57.590Z,9.23
2017-08-17T09:24:24.294Z,9.07
2017-08-17T09:26:50.985Z,9.93
2017-08-17T09:29:17.677Z,9.90
2017-08-17T09:31:44.371Z,10.03
2017-08-17T09:34:11.131Z,10.00
2017-08-17T09:36:37.908Z,11.03
2017-08-17T09:39:04.691Z,9.80
2017-08-17T09:41:31.496Z,9.70
2017-08-17T09:43:58.266Z,9.90
2017-08-17T09:46:25.102Z,10.47
2017-08-17T09:48:51.877Z,10.30
2017-08-17T09:51:18.670Z,9.00
2017-08-17T09:53:45.471Z,8.60
2017-08-17T09:56:12.241Z,7.47
2017-08-17T09:58:38.966Z,7.33
2017-08-17T10:01:05.654Z,7.63
2017-08-17T10:03:32.362Z,7.70
2017-08-17T10:05:59.199Z,6.70
2017-08-17T10:08:25.933Z,6.30
2017-08-17T10:10:52.647Z,6.03
2017-08-17T10:13:19.365Z,7.00
2017-08-17T10:15:46.116Z,5.90
2017-08-17T10:18:12.885Z,6.47
2017-08-17T10:20:39.572Z,6.10
2017-08-17T10:23:06.308Z,6.20
2017-08-17T10:25:33.002Z,5.77
2017-08-17T10:28:00.110Z,5.90
2017-08-17T10:30:26.793Z,6.13
2017-08-17T10:32:53.563Z,5.87
2017-08-17T10:35:20.339Z,5.80
2017-08-17T10:37:47.182Z,5.77
2017-08-17T10:40:14.048Z,5.97
2017-08-17T10:42:40.844Z,6.20
2017-08-17T10:45:07.684Z,6.23
2017-08-17T10:47:34.473Z,6.33
2017-08-17T10:50:01.245Z,5.70
2017-08-17T10:52:27.958Z,5.50
2017-08-17T10:54:54.691Z,5.77
2017-08-17T10:57:21.393Z,5.10
2017-08-17T10:59:49.094Z,5.47
2017-08-17T11:02:15.829Z,5.80
2017-08-17T11:04:42.563Z,5.30
2017-08-17T11:07:09.275Z,4.93
2017-08-17T11:09:36.023Z,5.20
2017-08-17T11:12:02.747Z,5.70
2017-08-17T11:14:29.573Z,5.50
2017-08-17T11:16:56.389Z,5.30
2017-08-17T11:19:23.121Z,4.93
2017-08-17T11:21:49.848Z,5.23
2017-08-17T11:24:16.605Z,5.13
2017-08-17T11:26:43.318Z,6.00
2017-08-17T11:29:10.057Z,5.30
2017-08-17T11:31:36.836Z,5.43
2017-08-17T11:34:03.568Z,5.40
2017-08-17T11:36:30.328Z,5.30
2017-08-17T11:38:57.097Z,5.40
2017-08-17T11:41:23.905Z,5.50
2017-08-17T11:43:50.675Z,5.70
2017-08-17T11:46:17.401Z,6.10
2017-08-17T11:48:43.837Z,5.53
2017-08-17T11:51:10.128Z,5.77
2017-08-17T11:53:36.836Z,5.40
2017-08-17T11:56:03.558Z,5.83
2017-08-17T11:58:30.251Z,5.60
2017-08-17T12:00:57.018Z,5.80
2017-08-17T12:03:23.747Z,5.90
2017-08-17T12:05:50.454Z,5.83
2017-08-17T12:08:17.225Z,5.30
2017-08-17T12:10:43.937Z,5.87
2017-08-17T12:13:10.655Z,5.60
2017-08-17T12:15:37.357Z,6.10
2017-08-17T12:18:04.150Z,5.27
2017-08-17T12:20:30.877Z,5.90
2017-08-17T12:22:57.599Z,5.63
2017-08-17T12:25:25.215Z,6.07
2017-08-17T12:27:53.104Z,5.93
2017-08-17T12:30:19.914Z,5.83
2017-08-17T12:32:46.634Z,5.80
2017-08-17T12:35:13.407Z,5.80
2017-08-17T12:37:40.247Z,6.30
2017-08-17T12:40:07.000Z,6.10
2017-08-17T12:42:33.770Z,5.93
2017-08-17T12:45:00.508Z,5.70
2017-08-17T12:47:27.312Z,5.70
2017-08-17T12:49:54.084Z,6.07
2017-08-17T12:52:20.812Z,6.30
2017-08-17T12:54:48.509Z,6.30
2017-08-17T12:57:17.676Z,6.07
2017-08-17T12:59:49.556Z,5.67
2017-08-17T13:02:25.983Z,5.20
2017-08-17T13:04:53.831Z,6.10
2017-08-17T13:07:22.126Z,6.23
2017-08-17T13:10:03.047Z,6.20
2017-08-17T13:12:35.988Z,5.83
2017-08-17T13:17:50.988Z,6.03
2017-08-17T13:20:34.760Z,5.80
2017-08-17T13:23:01.546Z,5.80
2017-08-17T13:25:28.295Z,6.20
2017-08-17T13:27:55.017Z,6.57
2017-08-17T13:30:22.193Z,6.87
2017-08-17T13:32:48.962Z,6.93
2017-08-17T13:35:15.727Z,6.23
2017-08-17T13:37:42.506Z,6.90
2017-08-17T13:40:09.299Z,6.20
2017-08-17T13:42:36.048Z,6.47
2017-08-17T13:45:02.854Z,6.17
2017-08-17T13:47:29.569Z,6.80
2017-08-17T13:50:00.433Z,6.40
2017-08-17T13:52:27.812Z,6.67
2017-08-17T13:54:54.561Z,6.10
2017-08-17T13:57:21.252Z,7.17
2017-08-17T13:59:47.936Z,7.10
2017-08-17T14:02:14.701Z,7.83
2017-08-17T14:04:41.500Z,6.20
2017-08-17T14:07:08.363Z,6.03
2017-08-17T14:09:35.202Z,6.67
2017-08-17T14:12:02.367Z,5.97
2017-08-17T14:14:29.307Z,6.53
2017-08-17T14:16:56.077Z,6.33
2017-08-17T14:19:22.873Z,6.90
2017-08-17T14:21:49.572Z,6.00
2017-08-17T14:24:18.656Z,6.17
2017-08-17T14:26:48.666Z,5.83
2017-08-17T14:29:15.594Z,5.83
2017-08-17T14:31:42.380Z,6.00
2017-08-17T14:34:10.530Z,6.07
2017-08-17T14:36:38.180Z,6.07
2017-08-17T14:39:05.343Z,7.67
2017-08-17T14:41:32.037Z,6.00
2017-08-17T14:43:58.765Z,5.40
2017-08-17T14:46:26.921Z,6.03
2017-08-17T14:48:53.811Z,5.50
2017-08-17T14:51:20.506Z,5.50
2017-08-17T14:53:47.268Z,5.37
2017-08-17T14:56:14.995Z,5.87
2017-08-17T14:58:41.726Z,6.57
2017-08-17T15:01:08.460Z,5.73
2017-08-17T15:03:35.168Z,6.00
2017-08-17T15:06:01.929Z,6.07
2017-08-17T15:08:28.728Z,6.10
2017-08-17T15:10:55.481Z,7.00
2017-08-17T15:13:22.204Z,7.00
2017-08-17T15:15:49.033Z,7.03
2017-08-17T15:18:15.769Z,7.80
2017-08-17T15:20:42.724Z,6.93
2017-08-17T15:23:09.436Z,7.20
2017-08-17T15:25:36.293Z,7.10
2017-08-17T15:28:03.058Z,7.70
2017-08-17T15:30:29.789Z,7.40
2017-08-17T15:32:56.483Z,8.03
2017-08-17T15:35:23.184Z,7.10
2017-08-17T15:37:49.865Z,7.93
2017-08-17T15:40:16.630Z,8.30
2017-08-17T15:42:43.868Z,8.50
2017-08-17T15:45:11.503Z,8.50
2017-08-17T15:47:38.189Z,8.50
2017-08-17T15:50:04.868Z,9.67
2017-08-17T15:52:31.862Z,10.20
2017-08-17T15:54:58.627Z,10.13
2017-08-17T15:57:25.340Z,9.40
2017-08-17T15:59:52.165Z,9.37
2017-08-17T16:02:20.108Z,9.87
2017-08-17T16:04:46.957Z,10.43
2017-08-17T16:07:14.694Z,11.00
2017-08-17T16:09:41.411Z,9.93
2017-08-17T16:12:08.121Z,10.07
2017-08-17T16:17:19.534Z,10.73
2017-08-17T16:19:46.247Z,8.97
2017-08-17T16:22:12.943Z,9.23
2017-08-17T16:24:39.629Z,8.70
2017-08-17T16:27:06.317Z,10.30
2017-08-17T16:29:33.039Z,10.63
2017-08-17T16:31:59.760Z,10.47
2017-08-17T16:34:26.477Z,11.47
2017-08-17T16:36:53.205Z,12.40
2017-08-17T16:39:20.833Z,11.97
2017-08-17T16:41:47.605Z,11.23
2017-08-17T16:44:14.316Z,10.63
2017-08-17T16:46:41.081Z,11.27
2017-08-17T16:49:07.797Z,11.90
2017-08-17T16:51:34.580Z,12.00
2017-08-17T16:54:01.524Z,12.70
2017-08-17T16:56:28.497Z,12.90
2017-08-17T16:59:23.631Z,12.50
2017-08-17T17:01:50.598Z,12.13
2017-08-17T17:04:17.537Z,13.07
2017-08-17T17:06:44.269Z,12.67
2017-08-17T17:09:11.840Z,12.83
2017-08-17T17:11:38.630Z,14.57
2017-08-17T17:14:05.584Z,12.63
2017-08-17T17:16:32.393Z,12.37
2017-08-17T17:18:59.400Z,13.80
2017-08-17T17:21:26.139Z,12.70
2017-08-17T17:23:52.872Z,14.10
2017-08-17T17:26:19.630Z,13.33
2017-08-17T17:28:46.392Z,13.57
2017-08-17T17:31:13.150Z,11.80
2017-08-17T17:33:39.932Z,13.62
2017-08-17T17:36:06.664Z,12.40
2017-08-17T17:38:33.377Z,14.00
2017-08-17T17:41:45.456Z,14.00
2017-08-17T17:44:12.148Z,15.65
2017-08-17T17:46:38.819Z,13.27
2017-08-17T17:49:05.504Z,14.23
2017-08-17T17:51:32.199Z,14.90
2017-08-17T17:53:58.884Z,14.70
2017-08-17T17:56:25.600Z,12.65
2017-08-17T17:58:52.289Z,13.05
2017-08-17T18:01:19.004Z,14.13
2017-08-17T18:03:45.696Z,15.43
2017-08-17T18:06:12.404Z,14.00
2017-08-17T18:08:39.083Z,13.27
2017-08-17T18:11:06.795Z,15.35
2017-08-17T18:13:33.481Z,15.40
2017-08-17T18:16:00.168Z,16.48
2017-08-17T18:18:26.853Z,14.43
2017-08-17T18:20:53.544Z,16.35
2017-08-17T18:23:20.266Z,15.70
2017-08-17T18:25:46.952Z,17.73
2017-08-17T18:28:13.664Z,14.68
2017-08-17T18:30:40.356Z,16.27
2017-08-17T18:33:07.068Z,15.68
2017-08-17T18:35:33.763Z,14.18
2017-08-17T18:38:00.472Z,14.38
2017-08-17T18:40:27.152Z,16.75
2017-08-17T18:42:53.860Z,16.83
2017-08-17T18:45:20.548Z,15.27
2017-08-17T18:47:47.267Z,14.95
2017-08-17T18:50:13.952Z,16.02
2017-08-17T18:52:40.640Z,15.82
2017-08-17T18:55:07.325Z,16.90
2017-08-17T18:57:34.006Z,15.60
2017-08-17T19:00:00.702Z,16.30
2017-08-17T19:02:27.385Z,16.27
2017-08-17T19:04:54.102Z,16.08
2017-08-17T19:07:20.787Z,17.85
2017-08-17T19:09:47.492Z,17.92
2017-08-17T19:12:14.176Z,15.50
2017-08-17T19:14:40.883Z,17.15
2017-08-17T19:17:07.569Z,16.50
2017-08-17T19:19:34.276Z,17.08
2017-08-17T19:22:00.963Z,15.75
2017-08-17T19:24:27.645Z,15.07
2017-08-17T19:26:54.360Z,15.57
2017-08-17T19:29:21.049Z,16.92
2017-08-17T19:31:47.728Z,16.50
2017-08-17T19:34:14.420Z,16.48
2017-08-17T19:36:41.136Z,16.98
2017-08-17T19:39:07.815Z,16.27
2017-08-17T19:41:34.530Z,15.13
2017-08-17T19:44:01.211Z,14.63
2017-08-17T19:46:27.925Z,14.05
2017-08-17T19:48:54.617Z,14.07
2017-08-17T19:51:21.331Z,12.13
2017-08-17T19:53:48.017Z,12.10
2017-08-17T19:56:14.700Z,10.60
2017-08-17T19:58:41.379Z,11.52
2017-08-17T20:01:08.073Z,14.00
2017-08-17T20:03:34.783Z,11.75
2017-08-17T20:06:01.464Z,10.98
2017-08-17T20:08:28.163Z,9.95
2017-08-17T20:10:54.848Z,10.40
2017-08-17T20:13:21.548Z,10.00
2017-08-17T20:15:48.252Z,10.07
2017-08-17T20:18:14.968Z,10.15
2017-08-17T20:20:41.652Z,9.63
2017-08-17T20:23:08.355Z,8.98
2017-08-17T20:25:35.035Z,9.90
2017-08-17T20:28:01.718Z,9.20
2017-08-17T20:30:28.420Z,9.00
2017-08-17T20:32:55.095Z,9.45
2017-08-17T20:35:21.771Z,8.60
2017-08-17T20:37:48.439Z,8.85
2017-08-17T20:40:15.111Z,8.10
2017-08-17T20:42:41.788Z,8.35
2017-08-17T20:45:08.496Z,9.02
2017-08-17T20:47:35.176Z,9.90
2017-08-17T20:50:01.856Z,7.90
2017-08-17T20:52:28.540Z,9.23
2017-08-17T20:57:28.364Z,9.85
2017-08-17T20:59:55.042Z,9.25
2017-08-17T21:02:21.724Z,9.50
2017-08-17T21:04:48.399Z,9.02
2017-08-17T21:07:15.099Z,8.48
2017-08-17T21:09:41.780Z,10.05
2017-08-17T21:12:08.460Z,9.45
2017-08-17T21:14:35.161Z,10.52
2017-08-17T21:17:01.869Z,11.05
2017-08-17T21:19:28.548Z,10.30
2017-08-17T21:21:55.272Z,9.80
2017-08-17T21:24:21.947Z,9.50
2017-08-17T21:26:48.627Z,10.45
2017-08-17T21:29:15.311Z,10.77
2017-08-17T21:31:42.000Z,9.95
2017-08-17T21:34:08.720Z,10.98
2017-08-17T21:36:35.432Z,10.75
2017-08-17T21:39:02.116Z,10.60
2017-08-17T21:41:28.820Z,8.77
2017-08-17T21:43:55.500Z,9.30
2017-08-17T21:46:22.208Z,10.07
2017-08-17T21:48:48.895Z,10.05
2017-08-17T21:51:15.627Z,9.80
2017-08-17T21:53:42.304Z,9.75
2017-08-17T21:56:09.027Z,9.90
2017-08-17T21:58:35.704Z,9.60
2017-08-17T22:01:02.380Z,9.50
2017-08-17T22:03:29.062Z,9.45
2017-08-17T22:05:55.784Z,10.05
2017-08-17T22:08:22.512Z,10.30
2017-08-17T22:10:49.196Z,10.40
2017-08-17T22:13:15.880Z,11.27
2017-08-17T22:15:42.560Z,10.80
2017-08-17T22:18:09.247Z,10.27
2017-08-17T22:20:35.923Z,10.98
2017-08-17T22:23:02.607Z,9.82
2017-08-17T22:25:29.308Z,9.57
2017-08-17T22:27:55.988Z,9.50
2017-08-17T22:30:22.684Z,8.50
2017-08-17T22:32:49.368Z,9.55
2017-08-17T22:35:16.074Z,9.55
2017-08-17T22:37:42.757Z,9.27
2017-08-17T22:40:09.460Z,9.40
2017-08-17T22:42:36.132Z,9.15
2017-08-17T22:45:02.831Z,9.15
2017-08-17T22:47:29.511Z,8.93
2017-08-17T22:49:56.206Z,8.85
2017-08-17T22:52:22.892Z,8.52
2017-08-17T22:54:49.581Z,9.07
2017-08-17T22:57:16.283Z,9.40
2017-08-17T22:59:42.957Z,8.88
2017-08-17T23:02:09.660Z,9.00
2017-08-17T23:04:36.353Z,9.05
2017-08-17T23:07:03.080Z,8.05
2017-08-17T23:09:29.780Z,8.93
2017-08-17T23:11:56.484Z,8.05
2017-08-17T23:14:23.172Z,7.95
2017-08-17T23:16:49.853Z,8.95
2017-08-17T23:19:16.528Z,8.50
2017-08-17T23:21:43.209Z,8.38
2017-08-17T23:24:09.908Z,9.85
2017-08-17T23:26:36.587Z,8.10
2017-08-17T23:29:03.292Z,8.63
2017-08-17T23:31:29.963Z,8.80
2017-08-17T23:33:56.676Z,8.75
2017-08-17T23:36:23.348Z,8.70
2017-08-17T23:38:50.021Z,8.07
2017-08-17T23:41:16.696Z,7.72
2017-08-17T23:43:43.371Z,8.30
2017-08-17T23:46:10.044Z,7.87
2017-08-17T23:48:36.715Z,7.95
2017-08-17T23:51:03.416Z,7.07
2017-08-17T23:53:30.095Z,8.50
2017-08-17T23:55:56.800Z,7.87
2017-08-17T23:58:23.480Z,7.57
